Time;durP1;ratioP1;P1;durP2;ratioP2;P2;SDS_P1;SDS_P2;PMS_P1;PMS_P2;Temp;Humidity;BMP_temperature;BMP_pressure;BME280_temperature;BME280_humidity;BME280_pressure;Samples;Min_cycle;Max_cycle;Signal;HPM_P1;HPM_P2
2023/12/14 07:05:10;;;;;;;23.30;8.13;;;;;;;;;;5064028;23;20063;-85
2023/12/14 07:07:36;;;;;;;22.52;8.50;;;;;;;;;;4931050;29;20033;-86
2023/12/14 07:10:01;;;;;;;19.58;7.88;;;;;;;;;;4915359;29;20052;-85
2023/12/14 07:12:26;;;;;;;23.52;7.50;;;;;;;;;;4916340;29;20147;-86
2023/12/14 07:14:52;;;;;;;20.60;8.98;;;;;;;;;;4916387;29;20070;-86
2023/12/14 07:17:17;;;;;;;19.85;7.35;;;;;;;;;;4916739;29;20020;-87
2023/12/14 07:19:42;;;;;;;14.87;6.93;;;;;;;;;;4919871;29;20020;-87
2023/12/14 07:22:07;;;;;;;21.17;8.43;;;;;;;;;;4915598;29;20016;-87
2023/12/14 07:24:33;;;;;;;24.50;8.63;;;;;;;;;;4931876;29;20024;-86
2023/12/14 07:26:58;;;;;;;17.50;7.35;;;;;;;;;;4921202;29;20028;-87
2023/12/14 07:29:23;;;;;;;20.23;8.33;;;;;;;;;;4914877;29;20463;-87
2023/12/14 07:31:48;;;;;;;19.15;8.65;;;;;;;;;;4915234;29;20440;-86
2023/12/14 07:34:14;;;;;;;18.33;6.83;;;;;;;;;;4930865;29;20390;-86
2023/12/14 07:36:39;;;;;;;21.70;7.53;;;;;;;;;;4916380;29;20107;-87
2023/12/14 07:39:05;;;;;;;16.20;7.57;;;;;;;;;;4930860;29;20496;-86
2023/12/14 07:41:32;;;;;;;20.87;8.67;;;;;;;;;;4916152;29;20100;-85
2023/12/14 07:43:58;;;;;;;22.13;7.63;;;;;;;;;;4914476;29;20084;-84
2023/12/14 07:46:23;;;;;;;21.27;7.23;;;;;;;;;;4931682;29;20028;-84
2023/12/14 07:48:49;;;;;;;18.30;8.10;;;;;;;;;;4930766;29;20060;-85
2023/12/14 07:51:14;;;;;;;22.25;8.00;;;;;;;;;;4917157;29;20095;-86
2023/12/14 07:53:40;;;;;;;19.38;7.47;;;;;;;;;;4914534;29;20021;-85
2023/12/14 07:56:06;;;;;;;14.82;7.28;;;;;;;;;;4916782;29;20320;-86
2023/12/14 07:58:31;;;;;;;19.25;7.60;;;;;;;;;;4916137;29;20099;-86
2023/12/14 08:00:56;;;;;;;15.27;6.85;;;;;;;;;;4931182;29;20107;-86
2023/12/14 08:03:22;;;;;;;18.13;7.32;;;;;;;;;;4931352;29;20084;-86
2023/12/14 08:05:47;;;;;;;15.07;6.38;;;;;;;;;;4916051;29;20028;-85
2023/12/14 08:08:12;;;;;;;15.30;7.07;;;;;;;;;;4915111;29;20080;-86
2023/12/14 08:10:37;;;;;;;18.02;7.20;;;;;;;;;;4914950;29;20111;-86
2023/12/14 08:13:03;;;;;;;19.13;6.97;;;;;;;;;;4916882;29;20054;-86
2023/12/14 08:15:28;;;;;;;20.80;7.93;;;;;;;;;;4930153;29;20025;-86
2023/12/14 08:17:54;;;;;;;15.73;7.57;;;;;;;;;;4918511;29;20104;-87
2023/12/14 08:20:19;;;;;;;18.73;7.63;;;;;;;;;;4932852;29;20357;-86
2023/12/14 08:22:45;;;;;;;24.63;10.83;;;;;;;;;;4913134;29;20112;-88
2023/12/14 08:25:14;;;;;;;15.60;7.30;;;;;;;;;;4926637;29;20524;-88
2023/12/14 08:27:39;;;;;;;19.33;7.68;;;;;;;;;;4917172;29;20543;-87
2023/12/14 08:30:05;;;;;;;18.03;7.57;;;;;;;;;;4935641;29;20028;-86
2023/12/14 08:32:30;;;;;;;26.80;10.37;;;;;;;;;;4912697;29;20328;-88
2023/12/14 08:34:55;;;;;;;20.97;9.17;;;;;;;;;;4911095;29;20016;-88
2023/12/14 08:37:21;;;;;;;19.00;7.63;;;;;;;;;;4929914;29;20031;-89
2023/12/14 08:39:46;;;;;;;23.38;8.95;;;;;;;;;;4929309;29;20082;-83
2023/12/14 08:42:11;;;;;;;21.80;8.60;;;;;;;;;;4914615;29;20050;-83
2023/12/14 08:44:38;;;;;;;17.58;7.32;;;;;;;;;;4930450;29;20032;-83
2023/12/14 08:47:04;;;;;;;16.15;7.07;;;;;;;;;;4914875;29;20531;-86
2023/12/14 08:49:29;;;;;;;16.00;6.63;;;;;;;;;;4915598;29;20031;-87
2023/12/14 08:51:55;;;;;;;17.20;7.27;;;;;;;;;;4914550;29;20028;-87
2023/12/14 08:54:20;;;;;;;20.92;7.60;;;;;;;;;;4916627;29;20139;-87
2023/12/14 08:56:45;;;;;;;14.33;6.37;;;;;;;;;;4919492;29;20056;-87
2023/12/14 08:59:10;;;;;;;15.20;6.32;;;;;;;;;;4918210;29;20032;-87
2023/12/14 09:01:35;;;;;;;16.93;6.47;;;;;;;;;;4918505;29;20033;-87
2023/12/14 09:04:01;;;;;;;16.85;6.72;;;;;;;;;;4909989;29;20043;-87
2023/12/14 09:06:26;;;;;;;19.53;6.73;;;;;;;;;;4917418;29;20035;-87
2023/12/14 09:08:51;;;;;;;20.55;7.70;;;;;;;;;;4918381;29;20027;-87
2023/12/14 09:11:16;;;;;;;19.63;7.53;;;;;;;;;;4933164;29;20100;-87
2023/12/14 09:13:42;;;;;;;20.93;8.70;;;;;;;;;;4929441;29;20024;-88
2023/12/14 09:16:07;;;;;;;35.63;15.97;;;;;;;;;;4917400;29;20123;-88
2023/12/14 09:18:32;;;;;;;23.43;10.20;;;;;;;;;;4927110;29;20022;-87
2023/12/14 09:20:58;;;;;;;17.23;7.70;;;;;;;;;;4924915;29;20024;-87
2023/12/14 09:23:23;;;;;;;16.73;7.27;;;;;;;;;;4903407;29;20024;-87
2023/12/14 09:25:49;;;;;;;21.07;7.37;;;;;;;;;;4916569;29;20142;-88
2023/12/14 09:28:14;;;;;;;19.90;8.07;;;;;;;;;;4916728;29;20019;-88
2023/12/14 09:30:40;;;;;;;19.80;7.63;;;;;;;;;;4916359;29;20024;-88
2023/12/14 09:33:08;;;;;;;17.03;7.33;;;;;;;;;;4932695;29;20194;-88
2023/12/14 09:35:33;;;;;;;23.23;9.13;;;;;;;;;;4918187;29;20024;-88
2023/12/14 09:37:58;;;;;;;24.47;8.40;;;;;;;;;;4918172;29;20022;-88
2023/12/14 09:40:23;;;;;;;19.00;7.23;;;;;;;;;;4916744;29;20028;-88
2023/12/14 09:42:49;;;;;;;24.37;8.07;;;;;;;;;;4917875;29;20028;-89
2023/12/14 09:45:16;;;;;;;20.95;8.20;;;;;;;;;;4917325;29;20032;-90
2023/12/14 09:47:41;;;;;;;15.00;7.33;;;;;;;;;;4918829;29;20024;-91
2023/12/14 09:50:07;;;;;;;24.92;7.88;;;;;;;;;;4910942;29;20545;-93
2023/12/14 09:52:33;;;;;;;14.50;6.07;;;;;;;;;;4915974;29;20014;-82
2023/12/14 09:54:58;;;;;;;18.57;7.63;;;;;;;;;;4915030;29;20016;-87
2023/12/14 09:57:25;;;;;;;17.17;7.27;;;;;;;;;;4916221;29;20335;-85
2023/12/14 09:59:54;;;;;;;18.20;7.15;;;;;;;;;;4916012;29;20024;-85
2023/12/14 10:02:20;;;;;;;23.17;7.23;;;;;;;;;;4915133;29;20460;-85
2023/12/14 10:04:45;;;;;;;17.37;7.07;;;;;;;;;;4914242;29;20059;-85
2023/12/14 10:07:10;;;;;;;14.18;6.40;;;;;;;;;;4915602;29;20055;-85
2023/12/14 10:09:37;;;;;;;13.30;5.88;;;;;;;;;;4914838;29;20410;-85
2023/12/14 10:12:04;;;;;;;19.95;8.95;;;;;;;;;;4915568;29;20627;-85
2023/12/14 10:14:29;;;;;;;17.60;7.17;;;;;;;;;;4915439;29;20028;-85
2023/12/14 10:16:55;;;;;;;13.90;7.18;;;;;;;;;;4915160;29;20099;-82
2023/12/14 10:19:21;;;;;;;11.52;6.00;;;;;;;;;;4914952;29;20030;-84
2023/12/14 10:21:46;;;;;;;13.60;5.43;;;;;;;;;;4930710;29;20467;-84
2023/12/14 10:24:12;;;;;;;12.30;4.93;;;;;;;;;;4915107;29;20024;-84
2023/12/14 10:26:37;;;;;;;14.87;5.03;;;;;;;;;;4915736;29;20022;-83
2023/12/14 10:29:04;;;;;;;11.67;4.83;;;;;;;;;;4914757;29;20375;-86
2023/12/14 10:31:30;;;;;;;10.20;5.17;;;;;;;;;;4930967;29;20111;-87
2023/12/14 10:33:55;;;;;;;11.45;5.22;;;;;;;;;;4914888;29;20020;-86
2023/12/14 10:36:23;;;;;;;18.48;6.57;;;;;;;;;;4915354;29;20020;-87
2023/12/14 10:38:51;;;;;;;13.13;5.37;;;;;;;;;;4914008;29;20031;-88
2023/12/14 10:41:17;;;;;;;12.37;5.03;;;;;;;;;;4914553;29;20137;-89
2023/12/14 10:43:43;;;;;;;14.63;4.90;;;;;;;;;;4931023;29;20115;-89
2023/12/14 10:46:09;;;;;;;8.60;4.20;;;;;;;;;;4914910;29;20081;-88
2023/12/14 10:48:41;;;;;;;11.53;4.73;;;;;;;;;;4915974;29;20788;-88
2023/12/14 10:51:08;;;;;;;12.60;4.75;;;;;;;;;;4915536;29;20025;-89
2023/12/14 10:53:34;;;;;;;12.95;5.10;;;;;;;;;;4911848;29;20020;-83
2023/12/14 10:56:00;;;;;;;11.75;4.78;;;;;;;;;;4914991;29;20164;-84
2023/12/14 10:58:25;;;;;;;13.18;4.88;;;;;;;;;;4914391;29;20115;-84
2023/12/14 11:01:02;;;;;;;14.70;5.00;;;;;;;;;;4914475;29;20511;-84
2023/12/14 11:03:32;;;;;;;10.87;4.70;;;;;;;;;;4914183;29;20040;-84
2023/12/14 11:06:00;;;;;;;12.97;4.80;;;;;;;;;;4914618;29;20031;-84
2023/12/14 11:08:25;;;;;;;12.57;5.40;;;;;;;;;;4914542;29;20115;-84
2023/12/14 11:10:56;;;;;;;12.10;5.10;;;;;;;;;;4915399;29;20095;-84
2023/12/14 11:13:22;;;;;;;9.43;4.20;;;;;;;;;;4924199;29;20958;-83
2023/12/14 11:15:51;;;;;;;12.07;5.07;;;;;;;;;;4898351;29;20144;-84
2023/12/14 11:18:20;;;;;;;9.60;4.03;;;;;;;;;;4894688;29;21446;-84
2023/12/14 11:20:45;;;;;;;10.20;4.23;;;;;;;;;;4908660;29;20487;-84
2023/12/14 11:23:13;;;;;;;14.33;5.83;;;;;;;;;;4905651;29;20119;-84
2023/12/14 11:25:41;;;;;;;10.13;4.15;;;;;;;;;;4906104;29;20020;-84
2023/12/14 11:28:07;;;;;;;12.20;5.07;;;;;;;;;;4914320;29;20035;-84
2023/12/14 11:30:33;;;;;;;11.30;4.10;;;;;;;;;;4914090;29;20096;-84
2023/12/14 11:32:58;;;;;;;8.63;3.97;;;;;;;;;;4913692;29;20107;-84
2023/12/14 11:35:24;;;;;;;16.25;5.72;;;;;;;;;;4913992;29;20020;-83
2023/12/14 11:37:49;;;;;;;18.73;6.10;;;;;;;;;;4913888;29;20027;-84
2023/12/14 11:40:16;;;;;;;17.37;4.67;;;;;;;;;;4913888;29;20036;-83
2023/12/14 11:42:41;;;;;;;13.35;5.85;;;;;;;;;;4914142;29;20020;-83
2023/12/14 11:45:07;;;;;;;14.80;5.30;;;;;;;;;;4913994;29;20388;-84
2023/12/14 11:47:32;;;;;;;16.35;5.20;;;;;;;;;;4913868;29;20032;-83
2023/12/14 11:49:57;;;;;;;14.18;5.55;;;;;;;;;;4913095;29;20111;-83
2023/12/14 11:52:22;;;;;;;13.50;5.55;;;;;;;;;;4911932;29;20056;-84
2023/12/14 11:54:48;;;;;;;13.77;5.22;;;;;;;;;;4913920;29;20032;-83
2023/12/14 11:57:13;;;;;;;11.53;5.30;;;;;;;;;;4929582;29;20032;-83
2023/12/14 11:59:38;;;;;;;13.60;5.20;;;;;;;;;;4913222;29;21182;-84
2023/12/14 12:02:03;;;;;;;17.63;4.93;;;;;;;;;;4913411;29;20032;-83
2023/12/14 12:04:29;;;;;;;13.30;5.25;;;;;;;;;;4929270;29;20032;-83
2023/12/14 12:07:05;;;;;;;13.70;5.70;;;;;;;;;;4915572;29;20059;-84
2023/12/14 12:09:36;;;;;;;12.02;5.65;;;;;;;;;;4913130;29;20487;-83
2023/12/14 12:12:05;;;;;;;10.43;4.80;;;;;;;;;;4929690;29;20055;-87
2023/12/14 12:14:30;;;;;;;14.93;5.83;;;;;;;;;;4913723;29;20460;-89
2023/12/14 12:16:55;;;;;;;12.63;4.93;;;;;;;;;;4914315;29;20032;-89
2023/12/14 12:19:20;;;;;;;18.55;5.95;;;;;;;;;;4922009;29;20600;-89
2023/12/14 12:21:45;;;;;;;12.43;5.20;;;;;;;;;;4915711;29;20108;-89
2023/12/14 12:24:11;;;;;;;14.55;4.85;;;;;;;;;;4914535;29;20024;-89
2023/12/14 12:26:36;;;;;;;9.27;5.00;;;;;;;;;;4914050;29;20443;-87
2023/12/14 12:29:03;;;;;;;11.20;4.57;;;;;;;;;;4915623;29;20491;-87
2023/12/14 12:31:28;;;;;;;11.45;5.05;;;;;;;;;;4917168;29;20034;-87
2023/12/14 12:33:54;;;;;;;10.75;4.53;;;;;;;;;;4916240;29;20119;-86
2023/12/14 12:36:20;;;;;;;10.52;3.92;;;;;;;;;;4919249;29;20056;-87
2023/12/14 12:38:45;;;;;;;10.87;4.93;;;;;;;;;;4917457;29;20088;-87
2023/12/14 12:41:10;;;;;;;11.05;4.88;;;;;;;;;;4917267;29;20028;-86
2023/12/14 12:43:36;;;;;;;16.17;5.43;;;;;;;;;;4917519;29;20064;-84
2023/12/14 12:46:02;;;;;;;12.38;5.40;;;;;;;;;;4917591;29;20055;-86
2023/12/14 12:48:27;;;;;;;11.57;4.82;;;;;;;;;;4918001;29;20036;-84
2023/12/14 12:50:52;;;;;;;9.35;4.38;;;;;;;;;;4917253;29;20079;-84
2023/12/14 12:53:18;;;;;;;11.68;5.00;;;;;;;;;;4916832;29;20050;-84
2023/12/14 12:55:43;;;;;;;11.25;5.18;;;;;;;;;;4917239;29;20128;-84
2023/12/14 12:58:09;;;;;;;9.27;4.32;;;;;;;;;;4916593;29;20102;-84
2023/12/14 13:00:36;;;;;;;17.60;5.90;;;;;;;;;;4916622;29;20040;-84
2023/12/14 13:03:02;;;;;;;12.30;5.00;;;;;;;;;;4934084;29;20028;-84
2023/12/14 13:05:27;;;;;;;14.33;4.70;;;;;;;;;;4916466;29;20056;-84
2023/12/14 13:07:54;;;;;;;13.68;5.95;;;;;;;;;;4917533;29;20545;-84
2023/12/14 13:10:22;;;;;;;11.83;4.70;;;;;;;;;;4931973;29;20055;-84
2023/12/14 13:12:47;;;;;;;16.42;4.97;;;;;;;;;;4917653;29;20020;-85
2023/12/14 13:15:12;;;;;;;12.68;4.55;;;;;;;;;;4932566;29;20047;-86
2023/12/14 13:17:38;;;;;;;13.77;5.40;;;;;;;;;;4916211;29;20039;-86
2023/12/14 13:20:06;;;;;;;12.33;4.60;;;;;;;;;;4915961;29;20035;-86
2023/12/14 13:22:31;;;;;;;12.63;4.78;;;;;;;;;;4932268;29;20024;-86
2023/12/14 13:24:56;;;;;;;10.75;4.32;;;;;;;;;;4916726;29;20043;-85
2023/12/14 13:27:23;;;;;;;15.00;6.50;;;;;;;;;;4917778;29;20024;-85
2023/12/14 13:29:49;;;;;;;17.90;5.40;;;;;;;;;;4915922;29;20025;-85
2023/12/14 13:32:14;;;;;;;14.50;5.00;;;;;;;;;;4917951;29;20020;-86
2023/12/14 13:34:39;;;;;;;16.10;5.90;;;;;;;;;;4932316;29;20507;-86
2023/12/14 13:37:05;;;;;;;10.73;4.93;;;;;;;;;;4916472;29;20062;-84
2023/12/14 13:39:31;;;;;;;12.17;5.23;;;;;;;;;;4915609;29;20052;-86
2023/12/14 13:41:56;;;;;;;14.20;5.30;;;;;;;;;;4915892;29;20484;-86
2023/12/14 13:44:21;;;;;;;15.23;6.43;;;;;;;;;;4916264;29;20539;-86
2023/12/14 13:46:47;;;;;;;9.52;4.35;;;;;;;;;;4917590;29;20024;-86
2023/12/14 13:49:12;;;;;;;14.85;5.88;;;;;;;;;;4915834;29;20035;-86
2023/12/14 13:51:37;;;;;;;15.15;5.13;;;;;;;;;;4911801;29;20189;-86
2023/12/14 13:54:03;;;;;;;12.57;4.97;;;;;;;;;;4916175;29;20115;-86
2023/12/14 13:56:28;;;;;;;12.43;5.23;;;;;;;;;;4915557;29;20028;-86
2023/12/14 13:58:53;;;;;;;14.35;5.55;;;;;;;;;;4917270;29;20021;-86
2023/12/14 14:01:18;;;;;;;11.70;5.15;;;;;;;;;;4917306;29;20027;-87
2023/12/14 14:03:46;;;;;;;14.23;4.80;;;;;;;;;;4915849;29;20036;-87
2023/12/14 14:06:11;;;;;;;16.33;5.50;;;;;;;;;;4930879;29;20030;-86
2023/12/14 14:08:37;;;;;;;14.23;5.90;;;;;;;;;;4911968;29;20024;-87
2023/12/14 14:11:02;;;;;;;13.77;4.82;;;;;;;;;;4927032;29;20020;-86
2023/12/14 14:13:28;;;;;;;12.27;4.63;;;;;;;;;;4930287;28;20096;-87
2023/12/14 14:15:53;;;;;;;10.93;4.85;;;;;;;;;;4915439;29;20079;-87
2023/12/14 14:18:18;;;;;;;12.90;5.82;;;;;;;;;;4916427;29;20502;-87
2023/12/14 14:20:43;;;;;;;12.93;5.75;;;;;;;;;;4930730;29;20027;-86
2023/12/14 14:23:09;;;;;;;18.35;5.70;;;;;;;;;;4915022;29;20108;-87
2023/12/14 14:25:34;;;;;;;12.43;5.35;;;;;;;;;;4916646;29;20052;-87
2023/12/14 14:28:00;;;;;;;15.30;6.20;;;;;;;;;;4912779;29;20020;-87
2023/12/14 14:30:25;;;;;;;11.98;5.22;;;;;;;;;;4927285;29;20028;-86
2023/12/14 14:32:51;;;;;;;13.57;5.65;;;;;;;;;;4916213;29;20158;-87
2023/12/14 14:35:16;;;;;;;17.30;6.40;;;;;;;;;;4929254;29;20758;-87
2023/12/14 14:37:45;;;;;;;12.90;5.97;;;;;;;;;;4913794;29;20031;-87
2023/12/14 14:40:10;;;;;;;14.13;6.53;;;;;;;;;;4907556;29;20964;-87
2023/12/14 14:42:35;;;;;;;18.67;6.43;;;;;;;;;;4910590;29;20156;-87
2023/12/14 14:45:01;;;;;;;13.30;5.63;;;;;;;;;;4912203;29;20382;-87
2023/12/14 14:47:27;;;;;;;15.48;5.28;;;;;;;;;;4912132;29;20024;-86
2023/12/14 14:49:56;;;;;;;16.50;5.13;;;;;;;;;;4914632;29;20024;-87
2023/12/14 14:52:21;;;;;;;10.88;5.07;;;;;;;;;;4914416;29;20070;-87
2023/12/14 14:54:47;;;;;;;14.63;4.87;;;;;;;;;;4914834;29;20434;-86
2023/12/14 14:57:12;;;;;;;12.95;4.72;;;;;;;;;;4913549;29;20028;-87
2023/12/14 14:59:37;;;;;;;13.90;4.13;;;;;;;;;;4914169;29;20104;-87
2023/12/14 15:02:03;;;;;;;9.45;4.13;;;;;;;;;;4906184;29;20044;-86
2023/12/14 15:04:28;;;;;;;10.60;4.07;;;;;;;;;;4915957;29;20656;-86
2023/12/14 15:06:54;;;;;;;12.20;4.30;;;;;;;;;;4914748;29;20032;-86
2023/12/14 15:09:19;;;;;;;12.35;4.13;;;;;;;;;;4914483;29;20483;-86
2023/12/14 15:11:44;;;;;;;12.70;4.03;;;;;;;;;;4914340;29;20499;-87
2023/12/14 15:14:10;;;;;;;12.65;4.28;;;;;;;;;;4918418;29;20070;-86
2023/12/14 15:16:36;;;;;;;12.68;4.45;;;;;;;;;;4913109;29;20100;-86
2023/12/14 15:19:01;;;;;;;11.25;4.78;;;;;;;;;;4926644;29;20024;-87
2023/12/14 15:21:26;;;;;;;12.65;3.75;;;;;;;;;;4929969;29;20083;-86
2023/12/14 15:23:52;;;;;;;10.73;4.10;;;;;;;;;;4914158;29;20421;-86
2023/12/14 15:26:17;;;;;;;9.10;4.10;;;;;;;;;;4927283;29;20035;-85
2023/12/14 15:28:42;;;;;;;13.13;4.70;;;;;;;;;;4929027;29;20027;-86
2023/12/14 15:31:08;;;;;;;9.38;4.28;;;;;;;;;;4912797;29;20126;-86
2023/12/14 15:33:33;;;;;;;12.10;4.10;;;;;;;;;;4908711;29;20024;-86
2023/12/14 15:36:00;;;;;;;10.45;3.70;;;;;;;;;;4916054;29;20016;-86
2023/12/14 15:38:25;;;;;;;14.15;4.38;;;;;;;;;;4914488;29;20497;-86
2023/12/14 15:40:50;;;;;;;10.17;4.03;;;;;;;;;;4914606;29;20020;-86
2023/12/14 15:43:16;;;;;;;10.75;4.00;;;;;;;;;;4915250;29;20131;-85
2023/12/14 15:45:43;;;;;;;10.80;4.32;;;;;;;;;;4915461;29;20362;-86
2023/12/14 15:48:08;;;;;;;9.65;4.68;;;;;;;;;;4915651;29;20028;-85
2023/12/14 15:50:33;;;;;;;12.40;4.68;;;;;;;;;;4914057;29;20020;-85
2023/12/14 15:52:59;;;;;;;9.98;4.53;;;;;;;;;;4914068;29;20035;-85
2023/12/14 15:55:24;;;;;;;12.40;5.00;;;;;;;;;;4913513;29;20065;-85
2023/12/14 15:57:53;;;;;;;15.35;5.07;;;;;;;;;;4911873;29;20080;-85
2023/12/14 16:00:18;;;;;;;16.20;6.60;;;;;;;;;;4910652;29;20636;-85
2023/12/14 16:02:43;;;;;;;13.50;5.13;;;;;;;;;;4914099;29;20112;-85
2023/12/14 16:05:09;;;;;;;13.70;5.10;;;;;;;;;;4913733;29;20123;-83
2023/12/14 16:07:34;;;;;;;11.52;5.20;;;;;;;;;;4913327;29;21198;-83
2023/12/14 16:10:00;;;;;;;13.18;5.72;;;;;;;;;;4929912;29;20020;-83
2023/12/14 16:12:25;;;;;;;10.15;5.22;;;;;;;;;;4913854;29;20020;-83
2023/12/14 16:14:50;;;;;;;15.80;5.47;;;;;;;;;;4928596;29;20368;-83
2023/12/14 16:17:17;;;;;;;16.50;5.67;;;;;;;;;;4913188;29;20468;-83
2023/12/14 16:19:42;;;;;;;17.75;5.57;;;;;;;;;;4913792;29;20039;-83
2023/12/14 16:22:08;;;;;;;13.15;5.45;;;;;;;;;;4913887;29;20040;-83
2023/12/14 16:24:33;;;;;;;17.13;6.57;;;;;;;;;;4913656;29;20027;-83
2023/12/14 16:26:58;;;;;;;16.20;6.38;;;;;;;;;;4913430;29;20024;-82
2023/12/14 16:29:24;;;;;;;16.63;6.73;;;;;;;;;;4912956;29;20029;-83
2023/12/14 16:31:49;;;;;;;15.73;6.47;;;;;;;;;;4913285;29;20051;-83
2023/12/14 16:34:14;;;;;;;19.45;7.63;;;;;;;;;;4912899;29;20037;-83
2023/12/14 16:36:41;;;;;;;18.80;7.83;;;;;;;;;;4913234;29;20024;-83
2023/12/14 16:39:09;;;;;;;16.77;7.33;;;;;;;;;;4913716;29;20032;-87
2023/12/14 16:41:34;;;;;;;17.70;6.72;;;;;;;;;;4914181;29;20091;-87
2023/12/14 16:44:00;;;;;;;25.85;9.88;;;;;;;;;;4913078;29;20115;-87
2023/12/14 16:46:25;;;;;;;33.42;12.73;;;;;;;;;;4914023;29;20035;-87
2023/12/14 16:48:50;;;;;;;38.63;15.50;;;;;;;;;;4928914;29;20186;-87
2023/12/14 16:51:21;;;;;;;65.53;19.75;;;;;;;;;;4915180;29;20031;-87
2023/12/14 16:53:49;;;;;;;66.68;20.88;;;;;;;;;;4919961;29;20028;-89
2023/12/14 16:56:16;;;;;;;39.13;18.65;;;;;;;;;;4914502;29;20029;-88
2023/12/14 16:58:41;;;;;;;30.60;13.57;;;;;;;;;;4913621;29;20020;-88
2023/12/14 17:01:07;;;;;;;22.02;9.77;;;;;;;;;;4913494;29;20083;-82
2023/12/14 17:03:32;;;;;;;26.60;9.38;;;;;;;;;;4913288;29;20032;-83
2023/12/14 17:05:57;;;;;;;26.20;10.83;;;;;;;;;;4913969;29;20079;-83
2023/12/14 17:08:22;;;;;;;26.33;10.03;;;;;;;;;;4928514;29;20060;-83
2023/12/14 17:10:49;;;;;;;21.75;8.70;;;;;;;;;;4910473;29;20063;-81
2023/12/14 17:13:14;;;;;;;22.60;8.82;;;;;;;;;;4906199;29;20024;-82
2023/12/14 17:15:40;;;;;;;23.25;9.60;;;;;;;;;;4911446;29;20028;-81
2023/12/14 17:18:05;;;;;;;26.92;10.15;;;;;;;;;;4909447;29;20080;-81
2023/12/14 17:20:32;;;;;;;23.75;9.88;;;;;;;;;;4914373;29;20103;-82
2023/12/14 17:22:57;;;;;;;24.70;9.88;;;;;;;;;;4916344;29;20039;-81
2023/12/14 17:25:22;;;;;;;24.48;9.70;;;;;;;;;;4912885;29;20028;-81
2023/12/14 17:27:48;;;;;;;13.70;6.50;;;;;;;;;;4906357;29;20448;-81
2023/12/14 17:30:13;;;;;;;22.13;8.02;;;;;;;;;;4915953;29;20028;-82
2023/12/14 17:32:38;;;;;;;16.02;7.13;;;;;;;;;;4916136;29;20035;-81
2023/12/14 17:35:04;;;;;;;16.08;6.90;;;;;;;;;;4914635;29;20028;-81
2023/12/14 17:37:29;;;;;;;21.87;8.97;;;;;;;;;;4908877;29;20020;-81
2023/12/14 17:39:54;;;;;;;18.77;7.90;;;;;;;;;;4906225;29;20024;-81
2023/12/14 17:42:19;;;;;;;20.13;6.88;;;;;;;;;;4912017;29;20024;-81
2023/12/14 17:44:45;;;;;;;20.70;7.50;;;;;;;;;;4925765;29;20091;-82
2023/12/14 17:47:10;;;;;;;18.53;8.03;;;;;;;;;;4910690;29;20047;-85
2023/12/14 17:49:35;;;;;;;16.23;7.63;;;;;;;;;;4915541;29;20032;-85
2023/12/14 17:52:00;;;;;;;16.58;7.60;;;;;;;;;;4908898;29;20432;-85
2023/12/14 17:54:26;;;;;;;17.45;7.82;;;;;;;;;;4915583;29;20024;-84
2023/12/14 17:56:51;;;;;;;19.77;8.50;;;;;;;;;;4916505;29;20039;-83
2023/12/14 17:59:16;;;;;;;26.20;10.35;;;;;;;;;;4915496;29;20028;-89
2023/12/14 18:01:42;;;;;;;21.47;9.67;;;;;;;;;;4932486;29;20024;-89
2023/12/14 18:04:07;;;;;;;18.77;8.02;;;;;;;;;;4915672;29;20035;-88
2023/12/14 18:06:33;;;;;;;14.40;7.32;;;;;;;;;;4930379;29;20416;-89
2023/12/14 18:08:58;;;;;;;19.30;7.30;;;;;;;;;;4915387;29;20396;-89
2023/12/14 18:11:23;;;;;;;21.60;8.73;;;;;;;;;;4917443;29;20428;-89
2023/12/14 18:13:48;;;;;;;20.92;9.98;;;;;;;;;;4914564;29;20068;-89
2023/12/14 18:16:14;;;;;;;18.15;7.65;;;;;;;;;;4904112;29;20353;-89
2023/12/14 18:18:39;;;;;;;16.70;8.52;;;;;;;;;;4915206;29;20028;-84
2023/12/14 18:21:05;;;;;;;17.70;8.10;;;;;;;;;;4915059;29;20170;-84
2023/12/14 18:23:30;;;;;;;19.20;8.65;;;;;;;;;;4915481;29;20047;-84
2023/12/14 18:25:55;;;;;;;24.17;9.98;;;;;;;;;;4915628;29;20030;-84
2023/12/14 18:28:20;;;;;;;17.67;8.35;;;;;;;;;;4915354;29;20035;-84
2023/12/14 18:30:46;;;;;;;26.98;8.27;;;;;;;;;;4915055;29;20784;-84
2023/12/14 18:33:11;;;;;;;22.83;8.55;;;;;;;;;;4915118;29;20028;-85
2023/12/14 18:35:36;;;;;;;20.42;8.27;;;;;;;;;;4917211;29;20051;-84
2023/12/14 18:38:02;;;;;;;25.17;8.70;;;;;;;;;;4931099;29;20016;-84
2023/12/14 18:40:28;;;;;;;18.93;7.67;;;;;;;;;;4915145;29;20052;-84
2023/12/14 18:42:53;;;;;;;19.23;8.70;;;;;;;;;;4914780;29;20138;-85
2023/12/14 18:45:19;;;;;;;26.50;10.27;;;;;;;;;;4914737;29;20024;-84
2023/12/14 18:47:44;;;;;;;31.63;10.80;;;;;;;;;;4930057;29;20439;-84
2023/12/14 18:50:09;;;;;;;27.10;10.03;;;;;;;;;;4916218;29;20495;-84
2023/12/14 18:52:35;;;;;;;18.37;8.43;;;;;;;;;;4929598;29;20040;-84
2023/12/14 18:55:00;;;;;;;26.73;9.80;;;;;;;;;;4914280;29;20068;-84
2023/12/14 18:57:25;;;;;;;24.40;10.17;;;;;;;;;;4915259;29;20043;-84
2023/12/14 18:59:50;;;;;;;25.20;9.90;;;;;;;;;;4914813;29;20115;-87
2023/12/14 19:02:16;;;;;;;16.20;7.63;;;;;;;;;;4914898;29;20028;-89
2023/12/14 19:04:41;;;;;;;17.63;7.53;;;;;;;;;;4914411;29;20368;-88
2023/12/14 19:07:07;;;;;;;18.53;6.77;;;;;;;;;;4915977;29;20402;-88
2023/12/14 19:09:32;;;;;;;19.07;7.10;;;;;;;;;;4916871;29;20032;-87
2023/12/14 19:11:57;;;;;;;22.40;7.07;;;;;;;;;;4914485;29;20034;-87
2023/12/14 19:14:22;;;;;;;20.27;7.73;;;;;;;;;;4906690;29;20115;-87
2023/12/14 19:16:49;;;;;;;17.00;7.35;;;;;;;;;;4913754;29;20028;-85
2023/12/14 19:19:14;;;;;;;18.75;8.02;;;;;;;;;;4914173;29;20531;-85
2023/12/14 19:21:41;;;;;;;16.10;7.63;;;;;;;;;;4915639;29;20099;-85
2023/12/14 19:24:06;;;;;;;21.88;8.40;;;;;;;;;;4930130;29;20107;-85
2023/12/14 19:26:32;;;;;;;30.58;10.02;;;;;;;;;;4914074;29;20127;-85
2023/12/14 19:28:57;;;;;;;21.47;8.73;;;;;;;;;;4929316;29;20024;-81
2023/12/14 19:31:23;;;;;;;20.77;7.32;;;;;;;;;;4915792;29;20150;-80
2023/12/14 19:33:49;;;;;;;16.37;7.97;;;;;;;;;;4913343;29;20468;-81
2023/12/14 19:36:14;;;;;;;19.63;7.32;;;;;;;;;;4915297;29;20029;-81
2023/12/14 19:38:43;;;;;;;15.00;7.03;;;;;;;;;;4913627;29;20091;-80
2023/12/14 19:41:09;;;;;;;15.50;6.63;;;;;;;;;;4913847;29;20032;-80
2023/12/14 19:43:35;;;;;;;11.17;5.20;;;;;;;;;;4913827;29;20032;-80
2023/12/14 19:46:00;;;;;;;20.43;5.87;;;;;;;;;;4929672;29;20119;-80
2023/12/14 19:48:26;;;;;;;11.33;5.10;;;;;;;;;;4913523;29;20583;-81
2023/12/14 19:50:51;;;;;;;14.55;4.80;;;;;;;;;;4914146;29;20035;-82
2023/12/14 19:53:16;;;;;;;13.90;5.23;;;;;;;;;;4912746;29;20032;-83
2023/12/14 19:55:41;;;;;;;11.77;5.23;;;;;;;;;;4914650;29;20099;-82
2023/12/14 19:58:07;;;;;;;11.83;6.27;;;;;;;;;;4914803;29;20027;-83
2023/12/14 20:00:32;;;;;;;9.47;4.93;;;;;;;;;;4913896;29;20026;-82
2023/12/14 20:02:57;;;;;;;12.30;5.37;;;;;;;;;;4913770;29;20369;-82
2023/12/14 20:05:23;;;;;;;10.83;4.00;;;;;;;;;;4914779;29;20379;-82
2023/12/14 20:07:48;;;;;;;11.70;5.22;;;;;;;;;;4913921;29;20531;-83
2023/12/14 20:10:13;;;;;;;10.53;4.83;;;;;;;;;;4913847;29;20111;-83
2023/12/14 20:12:39;;;;;;;10.40;4.75;;;;;;;;;;4913247;29;20039;-83
2023/12/14 20:15:04;;;;;;;14.50;6.45;;;;;;;;;;4914583;29;20024;-84
2023/12/14 20:17:29;;;;;;;11.15;4.65;;;;;;;;;;4913856;29;20435;-83
2023/12/14 20:19:55;;;;;;;11.43;4.73;;;;;;;;;;4908166;29;20395;-84
2023/12/14 20:22:20;;;;;;;11.10;3.97;;;;;;;;;;4918948;29;20498;-84
2023/12/14 20:24:47;;;;;;;12.60;4.75;;;;;;;;;;4913968;29;20039;-83
2023/12/14 20:27:13;;;;;;;11.87;4.60;;;;;;;;;;4902870;29;20032;-84
2023/12/14 20:29:38;;;;;;;12.00;3.88;;;;;;;;;;4914574;29;20062;-82
2023/12/14 20:32:04;;;;;;;12.23;4.55;;;;;;;;;;4928418;29;20468;-83
2023/12/14 20:34:29;;;;;;;13.45;4.57;;;;;;;;;;4912855;29;20091;-83
2023/12/14 20:36:54;;;;;;;17.73;5.37;;;;;;;;;;4912282;29;20456;-83
2023/12/14 20:39:19;;;;;;;12.83;5.53;;;;;;;;;;4913360;29;20118;-83
2023/12/14 20:41:45;;;;;;;16.33;5.13;;;;;;;;;;4913490;29;20395;-83
2023/12/14 20:44:10;;;;;;;13.13;4.60;;;;;;;;;;4914445;29;20032;-83
2023/12/14 20:46:35;;;;;;;13.13;4.85;;;;;;;;;;4913966;29;20029;-83
2023/12/14 20:49:01;;;;;;;17.60;6.13;;;;;;;;;;4913057;29;20119;-83
2023/12/14 20:51:26;;;;;;;15.63;6.50;;;;;;;;;;4931576;29;20544;-83
2023/12/14 20:53:52;;;;;;;37.63;8.33;;;;;;;;;;4931211;29;20110;-83
2023/12/14 20:56:18;;;;;;;11.50;4.65;;;;;;;;;;4918098;29;20417;-83
2023/12/14 20:58:43;;;;;;;19.17;5.15;;;;;;;;;;4931700;29;20055;-83
2023/12/14 21:01:09;;;;;;;8.37;4.70;;;;;;;;;;4929982;29;20028;-82
2023/12/14 21:03:38;;;;;;;18.20;5.57;;;;;;;;;;4915664;29;20401;-83
2023/12/14 21:06:04;;;;;;;14.27;4.90;;;;;;;;;;4916873;29;20028;-83
2023/12/14 21:08:29;;;;;;;12.18;4.45;;;;;;;;;;4917930;29;20111;-83
2023/12/14 21:10:54;;;;;;;21.43;5.47;;;;;;;;;;4913405;29;20411;-82
2023/12/14 21:13:22;;;;;;;19.57;7.53;;;;;;;;;;4935326;29;20032;-83
2023/12/14 21:15:47;;;;;;;17.53;4.97;;;;;;;;;;4917373;29;20028;-82
2023/12/14 21:18:13;;;;;;;12.30;4.45;;;;;;;;;;4916558;29;20031;-82
2023/12/14 21:20:38;;;;;;;12.87;4.80;;;;;;;;;;4931629;29;20103;-82
2023/12/14 21:23:04;;;;;;;12.73;4.23;;;;;;;;;;4917848;29;20016;-83
2023/12/14 21:25:37;;;;;;;12.70;4.20;;;;;;;;;;4917257;29;20086;-82